Novosibirsk, Russia
Current Conditions -  °F | °C
As of 3:30 AM on Saturday 29 Nov 2014 (Local Time) from UNNT Reporting Station
Clear Clear  
Wind Chill: -43°   Ceiling: Unl
Heat Index: -26°   Visibility: 6mi
Dew Point: -33°   Wind: 7mph
Humidity: 69%   Direction: 210°SSW
Pressure: 30.83"   Gusts: NA
Location:  55.04°N, 82.93°E
Report Text: UNNT 282030Z 21003MPS CAVOK M32/M36 Q1044 25810160 16810160NOSIG RMK QFE773/1030
Loading
Personal Weather Stations






























Interactive Weather Map New forecast layout! Learn more

10-Day Weather Forecast

Advertisements
Track Severe Weather on mobile